createdAt,value
2023-01-01T00:02:01.666Z,25.33
2023-01-01T00:04:30.268Z,27.67
2023-01-01T00:06:58.735Z,26.77
2023-01-01T00:09:44.957Z,28.93
2023-01-01T00:12:14.880Z,29.70
2023-01-01T00:14:44.530Z,28.47
2023-01-01T00:17:13.054Z,28.13
2023-01-01T00:19:41.534Z,26.77
2023-01-01T00:22:44.183Z,25.50
2023-01-01T00:24:58.352Z,26.97
2023-01-01T00:27:28.212Z,27.57
2023-01-01T00:29:56.618Z,27.97
2023-01-01T00:32:25.212Z,27.03
2023-01-01T00:34:53.825Z,25.83
2023-01-01T00:37:22.348Z,24.97
2023-01-01T00:39:50.851Z,26.13
2023-01-01T00:42:19.267Z,24.47
2023-01-01T00:44:49.202Z,28.33
2023-01-01T00:47:17.622Z,26.20
2023-01-01T00:49:46.086Z,25.87
2023-01-01T00:52:14.524Z,24.60
2023-01-01T00:54:43.056Z,24.10
2023-01-01T00:57:11.585Z,25.77
2023-01-01T00:59:40.046Z,25.70
2023-01-01T01:02:10.022Z,25.13
2023-01-01T01:04:38.542Z,25.20
2023-01-01T01:07:07.126Z,26.40
2023-01-01T01:09:35.676Z,24.33
2023-01-01T01:12:17.672Z,24.33
2023-01-01T01:14:47.371Z,24.27
2023-01-01T01:17:17.258Z,25.17
2023-01-01T01:19:45.663Z,23.80
2023-01-01T01:22:14.089Z,23.40
2023-01-01T01:24:42.563Z,23.10
2023-01-01T01:27:11.168Z,23.83
2023-01-01T01:29:39.647Z,22.60
2023-01-01T01:32:08.279Z,22.93
2023-01-01T01:34:38.092Z,24.37
2023-01-01T01:37:06.708Z,23.47
2023-01-01T01:39:35.264Z,23.60
2023-01-01T01:42:03.940Z,24.07
2023-01-01T01:44:52.219Z,21.47
2023-01-01T01:47:23.624Z,22.00
2023-01-01T01:49:56.686Z,22.97
2023-01-01T01:52:25.266Z,21.80
2023-01-01T01:54:54.347Z,20.70
2023-01-01T01:57:24.482Z,20.53
2023-01-01T01:59:55.880Z,21.37
2023-01-01T02:02:27.532Z,19.50
2023-01-01T02:04:57.520Z,23.27
2023-01-01T02:07:27.748Z,21.40
2023-01-01T02:09:56.259Z,20.73
2023-01-01T02:12:24.785Z,21.50
2023-01-01T02:14:53.269Z,22.20
2023-01-01T02:17:24.272Z,23.00
2023-01-01T02:20:04.944Z,22.47
2023-01-01T02:22:35.057Z,21.70
2023-01-01T02:25:12.069Z,20.03
2023-01-01T02:27:47.871Z,22.07
2023-01-01T02:30:17.892Z,21.20
2023-01-01T02:32:48.996Z,21.60
2023-01-01T02:35:38.798Z,19.73
2023-01-01T02:38:09.662Z,20.27
2023-01-01T02:40:39.680Z,19.77
2023-01-01T02:43:08.514Z,20.70
2023-01-01T02:45:38.347Z,21.83
2023-01-01T02:48:07.655Z,20.40
2023-01-01T02:50:36.828Z,21.23
2023-01-01T02:53:17.257Z,21.20
2023-01-01T02:55:49.726Z,20.73
2023-01-01T02:58:39.058Z,21.63
2023-01-01T03:01:11.743Z,22.13
2023-01-01T03:03:41.995Z,23.60
2023-01-01T03:06:27.182Z,23.67
2023-01-01T03:09:00.073Z,22.83
2023-01-01T03:11:32.959Z,22.73
2023-01-01T03:14:05.469Z,23.60
2023-01-01T03:16:38.462Z,22.10
2023-01-01T03:19:13.235Z,23.40
2023-01-01T03:21:43.758Z,21.80
2023-01-01T03:24:15.748Z,23.97
2023-01-01T03:26:44.808Z,21.90
2023-01-01T03:29:13.816Z,49.10
2023-01-01T03:31:45.431Z,37.20
2023-01-01T03:34:16.679Z,23.03
2023-01-01T03:36:46.789Z,23.97
2023-01-01T03:39:17.685Z,25.20
2023-01-01T03:41:49.066Z,24.10
2023-01-01T03:44:22.381Z,23.93
2023-01-01T03:46:52.629Z,24.43
2023-01-01T03:49:21.369Z,23.40
2023-01-01T03:52:04.706Z,23.80
2023-01-01T03:54:38.785Z,22.53
2023-01-01T03:57:10.947Z,22.47
2023-01-01T03:59:42.084Z,20.93
2023-01-01T04:02:12.845Z,20.33
2023-01-01T04:04:41.373Z,19.23
2023-01-01T04:07:15.110Z,18.10
2023-01-01T04:09:46.013Z,19.37
2023-01-01T04:12:14.656Z,19.37
2023-01-01T04:14:43.788Z,17.27
2023-01-01T04:17:14.651Z,18.60
2023-01-01T04:19:43.167Z,18.70
2023-01-01T04:22:11.890Z,17.90
2023-01-01T04:24:40.348Z,19.20
2023-01-01T04:27:08.813Z,17.93
2023-01-01T04:29:38.507Z,18.27
2023-01-01T04:32:07.043Z,19.57
2023-01-01T04:34:36.897Z,18.87
2023-01-01T04:37:11.287Z,19.93
2023-01-01T04:39:41.540Z,19.73
2023-01-01T04:42:09.990Z,19.87
2023-01-01T04:44:38.419Z,19.60
2023-01-01T04:47:07.050Z,19.87
2023-01-01T04:49:36.805Z,19.33
2023-01-01T04:52:05.180Z,19.77
2023-01-01T04:54:33.725Z,19.10
2023-01-01T04:57:02.201Z,20.37
2023-01-01T04:59:31.673Z,18.87
2023-01-01T05:02:00.790Z,19.70
2023-01-01T05:04:29.398Z,19.37
2023-01-01T05:06:59.252Z,20.47
2023-01-01T05:09:27.719Z,19.57
2023-01-01T05:11:56.660Z,20.17
2023-01-01T05:14:25.195Z,19.27
2023-01-01T05:16:54.672Z,19.40
2023-01-01T05:19:23.233Z,19.37
2023-01-01T05:21:51.752Z,19.23
2023-01-01T05:24:21.597Z,17.93
2023-01-01T05:26:50.208Z,17.60
2023-01-01T05:29:19.714Z,20.20
2023-01-01T05:31:48.258Z,19.67
2023-01-01T05:34:16.874Z,19.57
2023-01-01T05:36:45.290Z,20.07
2023-01-01T05:39:14.387Z,20.10
2023-01-01T05:41:44.250Z,18.97
2023-01-01T05:44:12.846Z,19.70
2023-01-01T05:46:41.540Z,19.67
2023-01-01T05:49:12.418Z,19.37
2023-01-01T05:56:36.770Z,18.93
2023-01-01T05:59:06.608Z,18.77
2023-01-01T06:01:41.674Z,18.93
2023-01-01T06:04:11.848Z,20.40
2023-01-01T06:06:40.380Z,19.37
2023-01-01T06:09:08.883Z,19.77
2023-01-01T06:11:37.471Z,18.43
2023-01-01T06:14:07.335Z,17.80
2023-01-01T06:16:35.895Z,19.03
2023-01-01T06:19:04.540Z,17.77
2023-01-01T06:21:32.940Z,17.40
2023-01-01T06:24:01.885Z,18.33
2023-01-01T06:26:31.482Z,16.97
2023-01-01T06:29:00.448Z,16.97
2023-01-01T06:31:34.302Z,19.13
2023-01-01T06:34:06.949Z,17.53
2023-01-01T06:36:35.404Z,17.57
2023-01-01T06:39:04.651Z,17.80
2023-01-01T06:41:33.261Z,18.53
2023-01-01T06:44:02.229Z,19.33
2023-01-01T06:46:32.912Z,18.87
2023-01-01T06:49:02.042Z,18.97
2023-01-01T06:51:31.063Z,19.13
2023-01-01T06:54:00.833Z,19.33
2023-01-01T06:56:29.636Z,20.07
2023-01-01T06:58:58.150Z,20.30
2023-01-01T07:01:27.398Z,21.83
2023-01-01T07:03:58.225Z,20.10
2023-01-01T07:06:27.291Z,20.03
2023-01-01T07:08:55.890Z,19.97
2023-01-01T07:11:24.657Z,18.67
2023-01-01T07:13:53.049Z,20.90
2023-01-01T07:16:22.006Z,20.23
2023-01-01T07:18:50.803Z,21.60
2023-01-01T07:21:30.702Z,19.43
2023-01-01T07:23:59.642Z,20.83
2023-01-01T07:26:29.669Z,20.33
2023-01-01T07:29:04.557Z,17.30
2023-01-01T07:31:35.723Z,17.93
2023-01-01T07:34:04.277Z,19.00
2023-01-01T07:36:34.157Z,19.73
2023-01-01T07:39:02.670Z,19.10
2023-01-01T07:41:31.301Z,17.33
2023-01-01T07:43:59.808Z,14.27
2023-01-01T07:46:28.459Z,12.63
2023-01-01T07:48:57.555Z,13.20
2023-01-01T07:51:26.066Z,11.50
2023-01-01T07:54:00.657Z,11.30
2023-01-01T07:56:30.767Z,9.73
2023-01-01T07:58:59.203Z,8.53
2023-01-01T08:01:27.755Z,8.17
2023-01-01T08:03:56.232Z,7.83
2023-01-01T08:06:24.619Z,8.03
2023-01-01T08:08:53.151Z,7.37
2023-01-01T08:11:23.094Z,7.43
2023-01-01T08:13:51.503Z,8.10
2023-01-01T08:16:20.002Z,7.43
2023-01-01T08:18:48.731Z,7.47
2023-01-01T08:21:17.138Z,8.63
2023-01-01T08:23:45.664Z,9.20
2023-01-01T08:26:16.770Z,9.50
2023-01-01T08:28:49.707Z,9.90
2023-01-01T08:31:22.116Z,10.63
2023-01-01T08:33:50.622Z,10.17
2023-01-01T08:36:20.851Z,10.77
2023-01-01T08:38:49.352Z,9.97
2023-01-01T08:41:17.827Z,11.73
2023-01-01T08:43:47.633Z,12.80
2023-01-01T08:46:16.188Z,11.47
2023-01-01T08:48:44.743Z,11.17
2023-01-01T08:51:13.141Z,11.87
2023-01-01T08:53:45.504Z,10.83
2023-01-01T08:56:19.067Z,11.67
2023-01-01T08:58:48.833Z,11.87
2023-01-01T09:01:17.361Z,11.70
2023-01-01T09:03:46.019Z,17.83
2023-01-01T09:06:14.524Z,23.03
2023-01-01T09:08:43.093Z,13.33
2023-01-01T09:11:18.028Z,11.43
2023-01-01T09:13:46.447Z,10.47
2023-01-01T09:16:16.353Z,11.77
2023-01-01T09:18:44.978Z,12.40
2023-01-01T09:21:13.430Z,12.37
2023-01-01T09:23:41.923Z,11.97
2023-01-01T09:26:11.571Z,12.50
2023-01-01T09:28:40.091Z,12.57
2023-01-01T09:31:08.600Z,12.70
2023-01-01T09:33:38.788Z,11.80
2023-01-01T09:36:16.855Z,12.73
2023-01-01T09:38:45.354Z,11.53
2023-01-01T09:41:18.346Z,11.73
2023-01-01T09:43:52.283Z,12.93
2023-01-01T09:46:25.040Z,12.70
2023-01-01T09:49:00.126Z,12.23
2023-01-01T09:51:30.560Z,12.67
2023-01-01T09:54:01.480Z,12.90
2023-01-01T09:56:31.393Z,13.27
2023-01-01T09:59:00.217Z,12.70
2023-01-01T10:01:35.738Z,12.60
2023-01-01T10:04:12.569Z,11.53
2023-01-01T10:06:45.908Z,11.67
2023-01-01T10:09:22.136Z,11.90
2023-01-01T10:11:55.969Z,11.03
2023-01-01T10:14:28.788Z,12.00
2023-01-01T10:16:58.492Z,12.07
2023-01-01T10:19:32.810Z,11.20
2023-01-01T10:22:03.999Z,11.73
2023-01-01T10:24:37.999Z,11.30
2023-01-01T10:27:07.437Z,12.97
2023-01-01T10:29:40.506Z,13.13
2023-01-01T10:32:17.070Z,12.70
2023-01-01T10:34:46.909Z,12.63
2023-01-01T10:37:16.242Z,13.30
2023-01-01T10:39:45.443Z,13.10
2023-01-01T10:42:14.255Z,13.10
2023-01-01T10:44:43.211Z,13.47
2023-01-01T10:47:25.651Z,13.63
2023-01-01T10:49:57.717Z,13.10
2023-01-01T10:52:31.778Z,12.00
2023-01-01T10:55:01.064Z,12.70
2023-01-01T10:57:34.243Z,13.20
2023-01-01T11:00:11.759Z,12.63
2023-01-01T11:02:40.291Z,12.77
2023-01-01T11:05:21.491Z,12.67
2023-01-01T11:07:50.586Z,17.67
2023-01-01T11:10:20.613Z,14.70
2023-01-01T11:13:06.524Z,13.30
2023-01-01T11:15:38.279Z,13.60
2023-01-01T11:18:07.902Z,14.57
2023-01-01T11:20:37.721Z,14.63
2023-01-01T11:23:19.426Z,12.83
2023-01-01T11:25:58.703Z,11.63
2023-01-01T11:28:27.196Z,11.63
2023-01-01T11:31:09.905Z,11.37
2023-01-01T11:33:39.976Z,12.03
2023-01-01T11:36:10.398Z,11.90
2023-01-01T11:38:38.845Z,12.13
2023-01-01T11:41:08.489Z,11.83
2023-01-01T11:43:40.475Z,11.63
2023-01-01T11:46:10.997Z,12.70
2023-01-01T11:48:43.016Z,11.87
2023-01-01T11:51:29.444Z,10.90
2023-01-01T11:54:11.086Z,11.57
2023-01-01T11:56:39.617Z,11.23
2023-01-01T11:59:14.848Z,11.90
2023-01-01T12:01:46.672Z,13.33
2023-01-01T12:04:18.297Z,11.30
2023-01-01T12:06:49.790Z,12.37
2023-01-01T12:09:21.384Z,11.67
2023-01-01T12:11:51.891Z,12.30
2023-01-01T12:14:25.991Z,12.23
2023-01-01T12:17:00.141Z,13.40
2023-01-01T12:19:30.339Z,12.07
2023-01-01T12:22:01.698Z,13.17
2023-01-01T12:24:33.977Z,12.03
2023-01-01T12:27:11.213Z,11.87
2023-01-01T12:29:44.793Z,11.80
2023-01-01T12:32:17.265Z,12.03
2023-01-01T12:34:50.399Z,11.70
2023-01-01T12:37:28.260Z,11.07
2023-01-01T12:40:19.678Z,11.37
2023-01-01T12:42:58.808Z,11.47
2023-01-01T12:45:33.877Z,11.43
2023-01-01T12:48:05.755Z,12.63
2023-01-01T12:50:40.281Z,12.17
2023-01-01T12:53:18.691Z,13.77
2023-01-01T12:56:03.312Z,12.97
2023-01-01T12:58:33.518Z,11.97
2023-01-01T13:01:03.492Z,11.93
2023-01-01T13:03:34.785Z,11.50
2023-01-01T13:06:03.598Z,11.20
2023-01-01T13:08:34.358Z,11.03
2023-01-01T13:11:04.920Z,10.80
2023-01-01T13:13:33.395Z,10.43
2023-01-01T13:16:02.020Z,11.23
2023-01-01T13:18:33.242Z,10.53
2023-01-01T13:21:06.602Z,10.03
2023-01-01T13:23:49.346Z,10.53
2023-01-01T13:26:36.304Z,9.97
2023-01-01T13:29:23.204Z,10.40
2023-01-01T13:32:10.587Z,8.80
2023-01-01T13:34:53.874Z,10.00
2023-01-01T13:37:45.053Z,11.10
2023-01-01T13:40:31.973Z,10.60
2023-01-01T13:43:09.139Z,11.40
2023-01-01T13:48:52.884Z,11.07
2023-01-01T13:52:04.366Z,11.57
2023-01-01T13:54:27.017Z,11.53
2023-01-01T13:56:57.505Z,10.93
2023-01-01T13:59:33.251Z,9.70
2023-01-01T14:02:15.052Z,10.00
2023-01-01T14:04:46.068Z,10.67
2023-01-01T14:10:24.739Z,8.47
2023-01-01T14:12:54.027Z,8.93
2023-01-01T14:15:28.677Z,9.13
2023-01-01T14:18:00.139Z,8.00
2023-01-01T14:20:33.947Z,7.90
2023-01-01T14:23:06.230Z,8.53
2023-01-01T14:25:34.720Z,8.47
2023-01-01T14:28:03.226Z,8.10
2023-01-01T14:30:34.099Z,8.13
2023-01-01T14:33:03.787Z,9.00
2023-01-01T14:35:32.288Z,9.13
2023-01-01T14:38:18.256Z,9.27
2023-01-01T14:40:47.017Z,8.27
2023-01-01T14:43:15.459Z,9.03
2023-01-01T14:45:45.881Z,8.63
2023-01-01T14:48:19.487Z,9.43
2023-01-01T14:50:49.823Z,10.30
2023-01-01T14:53:21.231Z,10.57
2023-01-01T14:55:50.758Z,9.80
2023-01-01T14:58:20.354Z,9.57
2023-01-01T15:00:50.270Z,10.37
2023-01-01T15:03:19.400Z,11.17
2023-01-01T15:05:48.571Z,10.20
2023-01-01T15:08:21.293Z,10.50
2023-01-01T15:10:50.248Z,10.73
2023-01-01T15:13:19.741Z,11.37
2023-01-01T15:15:49.094Z,11.77
2023-01-01T15:18:36.291Z,11.83
2023-01-01T15:21:06.442Z,11.17
2023-01-01T15:23:36.169Z,11.80
2023-01-01T15:26:08.479Z,10.80
2023-01-01T15:28:38.267Z,11.00
2023-01-01T15:31:07.205Z,11.60
2023-01-01T15:33:35.632Z,11.87
2023-01-01T15:36:04.104Z,11.37
2023-01-01T15:38:35.550Z,11.30
2023-01-01T15:41:24.514Z,10.77
2023-01-01T15:43:52.941Z,11.03
2023-01-01T15:46:26.102Z,11.03
2023-01-01T15:48:57.322Z,12.07
2023-01-01T15:51:26.637Z,12.47
2023-01-01T15:53:57.567Z,11.07
2023-01-01T15:56:26.817Z,10.83
2023-01-01T15:58:56.855Z,11.23
2023-01-01T16:01:26.431Z,11.30
2023-01-01T16:04:00.449Z,12.20
2023-01-01T16:06:28.999Z,11.80
2023-01-01T16:08:58.962Z,16.43
2023-01-01T16:11:27.434Z,15.43
2023-01-01T16:13:55.986Z,13.40
2023-01-01T16:16:29.021Z,12.37
2023-01-01T16:18:58.011Z,16.50
2023-01-01T16:21:28.516Z,22.10
2023-01-01T16:23:57.311Z,20.53
2023-01-01T16:26:27.215Z,19.33
2023-01-01T16:28:55.756Z,13.20
2023-01-01T16:31:26.441Z,11.20
2023-01-01T16:33:56.107Z,12.70
2023-01-01T16:36:24.990Z,11.90
2023-01-01T16:38:53.454Z,11.97
2023-01-01T16:41:21.965Z,11.60
2023-01-01T16:43:51.999Z,13.27
2023-01-01T16:46:20.481Z,12.67
2023-01-01T16:48:49.027Z,13.00
2023-01-01T16:51:19.616Z,13.27
2023-01-01T16:53:48.635Z,12.70
2023-01-01T16:56:17.395Z,11.30
2023-01-01T16:58:52.154Z,13.67
2023-01-01T17:01:24.588Z,72.40
2023-01-01T17:03:53.218Z,21.40
2023-01-01T17:06:21.732Z,17.87
2023-01-01T17:08:50.190Z,20.80
2023-01-01T17:11:20.507Z,26.40
2023-01-01T17:13:49.814Z,16.77
2023-01-01T17:16:25.477Z,15.47
2023-01-01T17:19:15.047Z,14.70
2023-01-01T17:21:45.556Z,15.93
2023-01-01T17:24:14.012Z,16.73
2023-01-01T17:26:42.491Z,19.17
2023-01-01T17:29:11.894Z,19.90
2023-01-01T17:31:40.659Z,18.77
2023-01-01T17:34:14.219Z,16.80
2023-01-01T17:36:43.309Z,17.20
2023-01-01T17:39:12.455Z,19.20
2023-01-01T17:41:41.178Z,17.70
2023-01-01T17:44:09.704Z,33.30
2023-01-01T17:46:38.293Z,30.50
2023-01-01T17:49:09.026Z,19.50
2023-01-01T17:51:39.478Z,18.30
2023-01-01T17:54:11.690Z,17.60
2023-01-01T17:56:40.233Z,20.40
2023-01-01T17:59:09.415Z,20.13
2023-01-01T18:01:38.070Z,18.77
2023-01-01T18:04:07.495Z,21.43
2023-01-01T18:06:41.469Z,32.80
2023-01-01T18:09:14.176Z,18.77
2023-01-01T18:11:42.706Z,17.83
2023-01-01T18:14:11.566Z,24.53
2023-01-01T18:16:41.441Z,24.43
2023-01-01T18:19:09.909Z,26.80
2023-01-01T18:21:38.425Z,34.57
2023-01-01T18:24:08.962Z,30.67
2023-01-01T18:26:38.867Z,27.67
2023-01-01T18:29:07.351Z,26.33
2023-01-01T18:31:36.673Z,21.27
2023-01-01T18:34:06.936Z,32.07
2023-01-01T18:36:36.194Z,27.63
2023-01-01T18:39:08.578Z,18.40
2023-01-01T18:41:51.860Z,18.20
2023-01-01T18:44:22.862Z,16.37
2023-01-01T18:46:55.103Z,16.40
2023-01-01T18:49:25.517Z,15.57
2023-01-01T18:51:56.851Z,15.50
2023-01-01T18:54:26.795Z,22.00
2023-01-01T18:57:02.211Z,20.80
2023-01-01T18:59:31.960Z,27.73
2023-01-01T19:02:00.531Z,31.30
2023-01-01T19:04:29.017Z,19.97
2023-01-01T19:06:57.583Z,18.00
2023-01-01T19:09:27.028Z,18.13
2023-01-01T19:11:56.640Z,19.70
2023-01-01T19:14:25.841Z,35.97
2023-01-01T19:16:57.628Z,37.90
2023-01-01T19:19:27.207Z,25.27
2023-01-01T19:21:59.303Z,31.33
2023-01-01T19:24:29.482Z,27.80
2023-01-01T19:26:58.806Z,20.80
2023-01-01T19:29:27.911Z,21.00
2023-01-01T19:31:58.632Z,22.87
2023-01-01T19:34:27.258Z,23.07
2023-01-01T19:36:55.735Z,23.27
2023-01-01T19:39:24.170Z,21.20
2023-01-01T19:41:52.604Z,19.97
2023-01-01T19:44:25.007Z,21.80
2023-01-01T19:46:53.944Z,26.17
2023-01-01T19:49:23.947Z,28.20
2023-01-01T19:51:52.360Z,25.17
2023-01-01T19:54:20.771Z,30.30
2023-01-01T19:56:49.353Z,29.50
2023-01-01T19:59:18.199Z,26.37
2023-01-01T20:01:50.177Z,26.70
2023-01-01T20:04:27.730Z,24.80
2023-01-01T20:06:56.237Z,24.47
2023-01-01T20:09:24.731Z,25.73
2023-01-01T20:11:53.144Z,30.77
2023-01-01T20:14:21.537Z,27.03
2023-01-01T20:16:50.940Z,23.67
2023-01-01T20:19:19.539Z,36.00
2023-01-01T20:22:06.982Z,20.13
2023-01-01T20:24:35.550Z,20.37
2023-01-01T20:27:03.966Z,17.27
2023-01-01T20:29:32.439Z,16.50
2023-01-01T20:32:00.980Z,17.50
2023-01-01T20:34:29.578Z,17.80
2023-01-01T20:37:16.857Z,19.60
2023-01-01T20:39:45.303Z,19.67
2023-01-01T20:42:13.849Z,19.97
2023-01-01T20:44:43.276Z,19.87
2023-01-01T20:47:11.876Z,17.70
2023-01-01T20:49:40.470Z,18.00
2023-01-01T20:52:10.308Z,16.57
2023-01-01T20:54:38.885Z,18.37
2023-01-01T20:57:07.369Z,17.50
2023-01-01T20:59:37.866Z,17.57
2023-01-01T21:02:06.863Z,17.43
2023-01-01T21:04:38.791Z,17.30
2023-01-01T21:07:07.777Z,19.13
2023-01-01T21:09:37.592Z,18.10
2023-01-01T21:12:06.252Z,18.47
2023-01-01T21:14:34.770Z,17.63
2023-01-01T21:17:04.022Z,17.17
2023-01-01T21:19:32.549Z,17.33
2023-01-01T21:22:01.119Z,15.60
2023-01-01T21:24:30.313Z,17.67
2023-01-01T21:27:03.094Z,17.77
2023-01-01T21:29:33.903Z,18.37
2023-01-01T21:32:10.284Z,17.60
2023-01-01T21:34:41.107Z,17.77
2023-01-01T21:37:13.286Z,17.40
2023-01-01T21:39:41.717Z,41.03
2023-01-01T21:42:18.424Z,23.27
2023-01-01T21:44:49.136Z,20.97
2023-01-01T21:47:21.636Z,20.07
2023-01-01T21:49:50.170Z,17.83
2023-01-01T21:52:21.001Z,17.83
2023-01-01T21:54:49.369Z,17.07
2023-01-01T21:57:20.704Z,16.13
2023-01-01T21:59:49.271Z,18.03
2023-01-01T22:02:35.762Z,19.23
2023-01-01T22:05:13.398Z,17.63
2023-01-01T22:07:58.602Z,19.47
2023-01-01T22:10:28.356Z,19.10
2023-01-01T22:13:00.933Z,22.23
2023-01-01T22:15:31.191Z,23.50
2023-01-01T22:18:07.829Z,21.07
2023-01-01T22:20:38.248Z,20.93
2023-01-01T22:23:12.744Z,21.00
2023-01-01T22:25:41.165Z,21.20
2023-01-01T22:28:17.421Z,20.47
2023-01-01T22:30:46.156Z,22.40
2023-01-01T22:33:17.573Z,21.67
2023-01-01T22:35:46.371Z,21.23
2023-01-01T22:38:16.956Z,22.27
2023-01-01T22:40:48.181Z,22.23
2023-01-01T22:43:19.549Z,22.17
2023-01-01T22:45:48.731Z,22.50
2023-01-01T22:48:20.658Z,20.90
2023-01-01T22:50:50.091Z,21.07
2023-01-01T22:53:18.456Z,21.90
2023-01-01T22:55:47.047Z,22.87
2023-01-01T22:58:15.549Z,20.37
2023-01-01T23:00:45.735Z,20.40
2023-01-01T23:03:14.290Z,19.93
2023-01-01T23:05:42.899Z,19.90
2023-01-01T23:08:11.376Z,20.90
2023-01-01T23:10:39.897Z,19.83
2023-01-01T23:13:22.315Z,20.07
2023-01-01T23:16:01.343Z,21.93
2023-01-01T23:18:32.748Z,20.20
2023-01-01T23:21:01.777Z,21.07
2023-01-01T23:23:30.617Z,21.17
2023-01-01T23:25:59.603Z,22.20
2023-01-01T23:28:28.915Z,21.77
2023-01-01T23:30:59.433Z,20.97
2023-01-01T23:33:28.081Z,22.43
2023-01-01T23:35:56.503Z,22.57
2023-01-01T23:38:25.175Z,20.13
2023-01-01T23:40:53.660Z,19.73
2023-01-01T23:43:22.178Z,21.43
2023-01-01T23:45:50.806Z,24.43
2023-01-01T23:48:20.946Z,23.17
2023-01-01T23:50:49.611Z,22.77
2023-01-01T23:53:18.049Z,22.93
2023-01-01T23:55:46.484Z,20.83
2023-01-01T23:58:16.781Z,21.80
